Pagina principale
METAR-TAF:

METAR-TAF

Aeroporti :

Aeroporto di Napoli-Capodichino

Napoli, Italia

latitudine: 40-51N, longitudine: 014-18E, altezza: 88 m

Osservazione

Il bollettino è stato emesso 32 minuti fa, alle 23:50 UTC
Vento 3 kt da sud, variando fra sud/sud-est e sud/sud-ovest
Temperature 18°C
Umidità 83%
Pressione 1013 hPa
Visibilità 10 km o più
nessuna nube inferiore a 1500 m e nessun cumulonembo

METAR: LIRN 152350Z 18003KT 150V210 CAVOK 18/15 Q1013 NOSIG

Ora: 02:22 (00:22 UTC)

Previsione

Il bollettino è stato emesso 1 ora e 22 minuti fa, alle 23:00 UTC
Previsione valida dal 16 alle 00 UTC al 16 alle 24 UTC
Vento 5 kt da direzioni variabili
Visibilità 10 km o più
Nubi sparse ad un'altezza di 4000 ft
Evoluzione graduale
dal 16 alle 08 UTC al 16 alle 10 UTC
Vento 12 kt da sud-ovest

TAF: LIRN 152300Z 1600/1624 VRB05KT 9999 SCT040 BECMG 1608/1610 22012KT

Osservazioni e previsioni meteorologiche di più di 4000 aeroporti (messaggi METAR e TAF).

Le stazioni disponibili sono rappresentate dai dischi gialli e rossi sulla carta.

Puntare il mouse per vedere il nome della stazione.

Clicca sopra per visualizzare le osservazioni e previsioni meteorologiche.

Per cambiare la mappa : fare clic sui pulsanti verdi con una croce nera per ingrandire, il pulsante verde con un trattino per diminuire, o sulla freccia verde per le mappe adiacenti.


METAR-TAF: